Weather at Stevensville Airstrip [CLOSED]

Public forecast

Using degrees Celsius for public forecast. Weather courtesy of forecast.io.

Closest aviation weather report (METAR) to Stevensville Airstrip

Closest report is Niagara Falls International Airport, 12.2 nm (22.5 km) NNE.

2024/07/18 23:53 (retrieved 35 minutes ago)

KIAG 182353Z 35006KT 10SM CLR 22/11 A3007 RMK AO2 SLP181 T02170111 10239 20217 53005

Closest aviation forecast (TAF) to Stevensville Airstrip

Closest forecast is Niagara District Airport, 15.5 nm (28.7 km) NNW.

2024/07/18 20:00 (retrieved 4 hours ago)

TAF CYSN 181940Z 1820/1901 34008KT P6SM SCT040 RMK NXT FCST BY 191300Z